createdAt,value
2018-03-16T00:00:01.713Z,96.86
2018-03-16T00:02:29.190Z,96.08
2018-03-16T00:04:56.635Z,95.67
2018-03-16T00:07:24.264Z,95.10
2018-03-16T00:09:51.721Z,95.14
2018-03-16T00:12:19.175Z,95.33
2018-03-16T00:14:46.649Z,95.53
2018-03-16T00:17:14.105Z,95.48
2018-03-16T00:19:41.570Z,95.57
2018-03-16T00:22:09.017Z,95.70
2018-03-16T00:24:36.477Z,95.58
2018-03-16T00:27:03.937Z,95.49
2018-03-16T00:29:31.377Z,95.58
2018-03-16T00:31:58.861Z,96.11
2018-03-16T00:34:26.305Z,96.21
2018-03-16T00:36:53.747Z,96.24
2018-03-16T00:39:21.221Z,96.57
2018-03-16T00:41:48.665Z,96.35
2018-03-16T00:44:16.413Z,96.63
2018-03-16T00:46:43.876Z,96.59
2018-03-16T00:49:11.319Z,96.46
2018-03-16T00:51:38.789Z,96.55
2018-03-16T00:54:06.257Z,96.66
2018-03-16T00:56:33.873Z,96.49
2018-03-16T00:59:01.318Z,96.72
2018-03-16T01:01:28.769Z,96.86
2018-03-16T01:03:56.233Z,97.15
2018-03-16T01:06:23.685Z,97.11
2018-03-16T01:08:51.313Z,97.16
2018-03-16T01:11:18.757Z,96.78
2018-03-16T01:13:46.197Z,97.16
2018-03-16T01:16:13.662Z,97.05
2018-03-16T01:18:41.140Z,96.78
2018-03-16T01:21:08.761Z,97.02
2018-03-16T01:23:36.201Z,96.74
2018-03-16T01:26:03.647Z,96.97
2018-03-16T01:28:31.113Z,97.54
2018-03-16T01:30:58.556Z,97.37
2018-03-16T01:33:26.076Z,97.26
2018-03-16T01:35:53.526Z,97.09
2018-03-16T01:38:20.977Z,97.28
2018-03-16T01:40:48.446Z,97.78
2018-03-16T01:43:15.914Z,98.20
2018-03-16T01:45:43.397Z,98.74
2018-03-16T01:48:10.837Z,99.07
2018-03-16T01:50:38.302Z,98.61
2018-03-16T01:53:16.790Z,98.11
2018-03-16T01:55:44.241Z,97.67
2018-03-16T01:58:11.726Z,97.78
2018-03-16T02:00:39.186Z,97.76
2018-03-16T02:03:06.630Z,97.79
2018-03-16T02:05:34.093Z,98.08
2018-03-16T02:08:01.534Z,98.50
2018-03-16T02:10:29.033Z,98.93
2018-03-16T02:12:56.485Z,98.69
2018-03-16T02:15:23.933Z,98.72
2018-03-16T02:17:51.417Z,98.98
2018-03-16T02:20:18.862Z,99.66
2018-03-16T02:22:46.709Z,99.35
2018-03-16T02:25:14.166Z,99.27
2018-03-16T02:27:41.628Z,99.00
2018-03-16T02:30:09.111Z,98.27
2018-03-16T02:32:36.553Z,97.82
2018-03-16T02:35:04.453Z,97.77
2018-03-16T02:37:31.893Z,96.73
2018-03-16T02:39:59.332Z,96.63
2018-03-16T02:42:26.908Z,96.06
2018-03-16T02:44:54.358Z,95.94
2018-03-16T02:47:21.988Z,95.49
2018-03-16T02:49:49.479Z,95.57
2018-03-16T02:52:16.925Z,95.55
2018-03-16T02:54:44.394Z,95.02
2018-03-16T02:57:11.937Z,95.19
2018-03-16T02:59:39.426Z,95.50
2018-03-16T03:02:06.875Z,95.91
2018-03-16T03:04:34.317Z,96.13
2018-03-16T03:07:01.806Z,96.44
2018-03-16T03:09:29.249Z,96.56
2018-03-16T03:11:56.729Z,96.65
2018-03-16T03:14:24.217Z,96.11
2018-03-16T03:16:51.661Z,96.13
2018-03-16T03:19:19.125Z,96.47
2018-03-16T03:21:46.564Z,96.67
2018-03-16T03:24:14.121Z,96.75
2018-03-16T03:26:41.566Z,97.02
2018-03-16T03:29:09.032Z,96.89
2018-03-16T03:31:36.510Z,96.99
2018-03-16T03:34:03.967Z,96.87
2018-03-16T03:36:31.464Z,96.65
2018-03-16T03:38:58.916Z,96.69
2018-03-16T03:41:26.353Z,96.15
2018-03-16T03:43:53.817Z,96.23
2018-03-16T03:46:21.256Z,95.85
2018-03-16T03:48:48.949Z,95.65
2018-03-16T03:51:16.395Z,95.92
2018-03-16T03:53:43.837Z,96.11
2018-03-16T03:56:11.293Z,95.94
2018-03-16T03:58:38.779Z,95.79
2018-03-16T04:01:06.238Z,96.19
2018-03-16T04:03:33.710Z,96.03
2018-03-16T04:06:01.173Z,95.50
2018-03-16T04:08:28.633Z,95.34
2018-03-16T04:10:56.077Z,95.69
2018-03-16T04:13:23.549Z,95.07
2018-03-16T04:15:51.001Z,95.05
2018-03-16T04:18:18.533Z,95.28
2018-03-16T04:20:45.995Z,95.40
2018-03-16T04:23:13.430Z,95.23
2018-03-16T04:25:40.904Z,94.29
2018-03-16T04:28:08.341Z,94.82
2018-03-16T04:30:35.794Z,94.86
2018-03-16T04:33:03.265Z,94.77
2018-03-16T04:35:30.701Z,94.62
2018-03-16T04:37:58.169Z,94.83
2018-03-16T04:40:25.612Z,94.64
2018-03-16T04:42:53.045Z,94.43
2018-03-16T04:45:20.502Z,93.57
2018-03-16T04:47:47.941Z,93.10
2018-03-16T04:50:15.593Z,93.23
2018-03-16T04:52:43.029Z,92.36
2018-03-16T04:55:10.462Z,92.47
2018-03-16T04:57:37.917Z,92.84
2018-03-16T05:00:05.368Z,93.20
2018-03-16T05:02:32.825Z,92.84
2018-03-16T05:05:00.278Z,93.60
2018-03-16T05:07:27.721Z,94.23
2018-03-16T05:09:55.182Z,94.35
2018-03-16T05:12:22.613Z,94.43
2018-03-16T05:14:50.501Z,94.30
2018-03-16T05:17:17.936Z,92.81
2018-03-16T05:19:45.381Z,92.87
2018-03-16T05:22:12.837Z,93.84
2018-03-16T05:24:40.281Z,94.06
2018-03-16T05:27:07.790Z,94.03
2018-03-16T05:29:35.245Z,93.95
2018-03-16T05:32:02.707Z,94.50
2018-03-16T05:34:30.175Z,94.99
2018-03-16T05:36:57.621Z,94.32
2018-03-16T05:39:25.425Z,93.48
2018-03-16T05:41:52.904Z,93.17
2018-03-16T05:44:20.358Z,93.78
2018-03-16T05:46:47.818Z,93.59
2018-03-16T05:49:15.258Z,93.63
2018-03-16T05:51:42.822Z,94.12
2018-03-16T05:54:10.261Z,93.96
2018-03-16T05:56:37.696Z,94.08
2018-03-16T05:59:05.158Z,93.13
2018-03-16T06:01:32.629Z,93.91
2018-03-16T06:04:00.253Z,93.79
2018-03-16T06:06:27.701Z,93.79
2018-03-16T06:08:55.165Z,93.47
2018-03-16T06:11:22.629Z,93.07
2018-03-16T06:13:50.077Z,92.81
2018-03-16T06:16:17.741Z,93.09
2018-03-16T06:18:45.173Z,92.82
2018-03-16T06:21:12.638Z,92.95
2018-03-16T06:23:40.170Z,92.13
2018-03-16T06:26:07.661Z,91.67
2018-03-16T06:28:35.141Z,91.94
2018-03-16T06:31:02.585Z,92.76
2018-03-16T06:33:30.017Z,92.96
2018-03-16T06:35:57.473Z,93.18
2018-03-16T06:38:24.910Z,92.93
2018-03-16T06:40:52.533Z,92.54
2018-03-16T06:43:20.002Z,92.09
2018-03-16T06:45:47.424Z,92.20
2018-03-16T06:48:14.894Z,93.74
2018-03-16T06:50:42.330Z,93.57
2018-03-16T06:53:09.989Z,92.82
2018-03-16T06:55:37.426Z,92.75
2018-03-16T06:58:04.862Z,93.39
2018-03-16T07:00:32.334Z,92.89
2018-03-16T07:02:59.801Z,92.06
2018-03-16T07:05:27.273Z,91.95
2018-03-16T07:07:54.709Z,91.93
2018-03-16T07:10:22.144Z,92.16
2018-03-16T07:12:49.633Z,91.67
2018-03-16T07:15:29.014Z,91.11
2018-03-16T07:17:56.696Z,91.71
2018-03-16T07:20:24.134Z,91.21
2018-03-16T07:22:51.569Z,91.17
2018-03-16T07:25:19.026Z,91.39
2018-03-16T07:27:46.469Z,90.94
2018-03-16T07:30:14.115Z,90.57
2018-03-16T07:32:41.595Z,91.10
2018-03-16T07:35:09.082Z,90.75
2018-03-16T07:37:36.515Z,90.76
2018-03-16T07:40:03.970Z,90.05
2018-03-16T07:42:31.669Z,90.21
2018-03-16T07:44:59.101Z,90.26
2018-03-16T07:47:26.537Z,90.54
2018-03-16T07:49:53.993Z,90.60
2018-03-16T07:52:21.434Z,90.09
2018-03-16T07:54:49.221Z,90.37
2018-03-16T07:57:16.653Z,90.58
2018-03-16T07:59:44.097Z,90.61
2018-03-16T08:02:11.557Z,89.59
2018-03-16T08:04:38.997Z,90.08
2018-03-16T08:07:06.571Z,89.65
2018-03-16T08:09:34.010Z,89.24
2018-03-16T08:12:01.445Z,89.22
2018-03-16T08:14:28.918Z,88.20
2018-03-16T08:16:56.362Z,88.63
2018-03-16T08:19:23.970Z,88.19
2018-03-16T08:21:51.425Z,88.03
2018-03-16T08:24:18.857Z,88.03
2018-03-16T08:26:46.318Z,88.07
2018-03-16T08:29:13.757Z,88.43
2018-03-16T08:31:41.669Z,88.71
2018-03-16T08:34:09.117Z,88.87
2018-03-16T08:36:36.566Z,88.65
2018-03-16T08:39:04.043Z,88.80
2018-03-16T08:41:31.502Z,87.95
2018-03-16T08:43:59.121Z,87.81
2018-03-16T08:46:26.562Z,87.78
2018-03-16T08:48:53.997Z,88.28
2018-03-16T08:51:21.453Z,87.72
2018-03-16T08:53:48.889Z,87.88
2018-03-16T08:56:16.378Z,87.62
2018-03-16T08:58:43.814Z,87.32
2018-03-16T09:01:11.252Z,87.48
2018-03-16T09:03:38.739Z,87.18
2018-03-16T09:06:06.196Z,88.44
2018-03-16T09:08:33.818Z,89.32
2018-03-16T09:11:01.264Z,89.38
2018-03-16T09:13:28.710Z,90.26
2018-03-16T09:15:56.166Z,90.20
2018-03-16T09:18:23.601Z,90.89
2018-03-16T09:20:51.314Z,89.99
2018-03-16T09:23:18.750Z,90.80
2018-03-16T09:25:46.181Z,89.53
2018-03-16T09:28:13.643Z,89.45
2018-03-16T09:30:41.078Z,89.93
2018-03-16T09:33:08.546Z,89.83
2018-03-16T09:35:35.983Z,88.42
2018-03-16T09:38:03.418Z,88.49
2018-03-16T09:40:30.882Z,88.96
2018-03-16T09:42:58.319Z,88.66
2018-03-16T09:45:25.990Z,90.22
2018-03-16T09:47:53.429Z,90.33
2018-03-16T09:50:20.876Z,89.82
2018-03-16T09:52:48.336Z,91.01
2018-03-16T09:55:24.618Z,90.34
2018-03-16T09:57:52.099Z,89.09
2018-03-16T10:00:19.563Z,89.88
2018-03-16T10:02:47.005Z,89.78
2018-03-16T10:05:14.519Z,90.21
2018-03-16T10:07:41.961Z,90.69
2018-03-16T10:10:09.773Z,90.65
2018-03-16T10:12:37.229Z,91.02
2018-03-16T10:15:04.669Z,91.89
2018-03-16T10:17:32.134Z,91.79
2018-03-16T10:19:59.569Z,91.93
2018-03-16T10:22:27.325Z,92.80
2018-03-16T10:24:54.761Z,92.67
2018-03-16T10:27:22.984Z,92.14
2018-03-16T10:29:50.457Z,90.88
2018-03-16T10:32:17.913Z,92.22
2018-03-16T10:34:45.383Z,91.76
2018-03-16T10:37:12.829Z,92.15
2018-03-16T10:39:40.289Z,92.43
2018-03-16T10:42:07.754Z,92.78
2018-03-16T10:44:35.207Z,93.30
2018-03-16T10:47:02.854Z,92.62
2018-03-16T10:49:30.294Z,90.74
2018-03-16T10:51:57.740Z,90.90
2018-03-16T10:54:25.208Z,91.42
2018-03-16T10:56:52.646Z,91.55
2018-03-16T10:59:20.117Z,89.44
2018-03-16T11:01:53.162Z,90.48
2018-03-16T11:04:20.621Z,90.12
2018-03-16T11:06:53.741Z,90.32
2018-03-16T11:09:21.254Z,91.58
2018-03-16T11:11:49.634Z,88.31
2018-03-16T11:14:17.073Z,90.35
2018-03-16T11:16:44.549Z,91.24
2018-03-16T11:19:11.985Z,87.46
2018-03-16T11:21:39.478Z,89.78
2018-03-16T11:24:06.932Z,88.77
2018-03-16T11:26:34.380Z,89.53
2018-03-16T11:29:01.841Z,89.76
2018-03-16T11:31:29.277Z,85.09
2018-03-16T11:33:56.770Z,88.28
2018-03-16T11:36:24.217Z,90.09
2018-03-16T11:38:51.657Z,89.54
2018-03-16T11:41:19.134Z,90.75
2018-03-16T11:43:46.574Z,90.30
2018-03-16T11:46:14.329Z,90.14
2018-03-16T11:48:41.774Z,90.62
2018-03-16T11:51:09.217Z,91.60
2018-03-16T11:53:36.688Z,90.71
2018-03-16T11:56:04.129Z,91.33
2018-03-16T11:58:31.845Z,91.10
2018-03-16T12:00:59.301Z,91.31
2018-03-16T12:03:26.738Z,89.65
2018-03-16T12:05:54.209Z,89.22
2018-03-16T12:08:21.671Z,89.50
2018-03-16T12:10:49.248Z,89.46
2018-03-16T12:13:16.702Z,87.91
2018-03-16T12:15:44.153Z,86.16
2018-03-16T12:18:11.651Z,85.73
2018-03-16T12:20:39.153Z,84.28
2018-03-16T12:23:06.620Z,85.61
2018-03-16T12:25:34.065Z,83.11
2018-03-16T12:28:01.525Z,84.30
2018-03-16T12:30:28.989Z,83.02
2018-03-16T12:32:56.429Z,81.98
2018-03-16T12:35:24.216Z,81.42
2018-03-16T12:37:51.670Z,83.83
2018-03-16T12:40:19.109Z,82.50
2018-03-16T12:42:46.598Z,80.97
2018-03-16T12:45:14.037Z,81.39
2018-03-16T12:47:41.686Z,81.60
2018-03-16T12:50:09.126Z,80.45
2018-03-16T12:52:36.569Z,82.13
2018-03-16T12:55:04.045Z,81.86
2018-03-16T12:57:31.489Z,81.22
2018-03-16T12:59:59.058Z,80.47
2018-03-16T13:02:26.501Z,81.92
2018-03-16T13:04:53.950Z,82.16
2018-03-16T13:07:21.429Z,81.24
2018-03-16T13:09:48.881Z,81.64
2018-03-16T13:12:16.358Z,82.16
2018-03-16T13:14:43.810Z,82.43
2018-03-16T13:17:11.316Z,82.06
2018-03-16T13:19:38.753Z,81.77
2018-03-16T13:22:06.218Z,80.81
2018-03-16T13:24:33.811Z,82.13
2018-03-16T13:27:01.252Z,81.24
2018-03-16T13:29:28.696Z,80.45
2018-03-16T13:31:56.166Z,80.01
2018-03-16T13:34:23.606Z,79.74
2018-03-16T13:36:51.082Z,80.26
2018-03-16T13:39:18.525Z,79.41
2018-03-16T13:41:45.967Z,80.91
2018-03-16T13:44:13.465Z,81.38
2018-03-16T13:46:40.905Z,84.12
2018-03-16T13:49:08.529Z,85.80
2018-03-16T13:51:35.982Z,86.65
2018-03-16T13:54:03.503Z,85.46
2018-03-16T13:56:30.977Z,85.26
2018-03-16T13:58:58.418Z,85.20
2018-03-16T14:01:26.647Z,86.95
2018-03-16T14:03:54.189Z,88.06
2018-03-16T14:06:21.635Z,88.78
2018-03-16T14:08:49.114Z,90.33
2018-03-16T14:11:16.557Z,91.14
2018-03-16T14:13:44.021Z,91.85
2018-03-16T14:16:11.485Z,92.56
2018-03-16T14:18:38.950Z,92.53
2018-03-16T14:21:06.426Z,92.37
2018-03-16T14:23:33.882Z,93.50
2018-03-16T14:26:01.461Z,93.75
2018-03-16T14:28:28.927Z,92.60
2018-03-16T14:30:56.365Z,93.15
2018-03-16T14:33:23.838Z,91.62
2018-03-16T14:35:51.277Z,91.96
2018-03-16T14:38:18.745Z,91.89
2018-03-16T14:40:46.186Z,92.92
2018-03-16T14:43:13.634Z,92.67
2018-03-16T14:45:41.119Z,91.99
2018-03-16T14:48:08.558Z,90.02
2018-03-16T14:50:36.177Z,87.80
2018-03-16T14:53:03.623Z,88.25
2018-03-16T14:55:31.060Z,85.96
2018-03-16T14:57:58.535Z,87.14
2018-03-16T15:00:25.978Z,83.99
2018-03-16T15:02:53.465Z,83.81
2018-03-16T15:05:20.906Z,84.92
2018-03-16T15:07:48.350Z,82.04
2018-03-16T15:10:15.828Z,83.00
2018-03-16T15:12:43.286Z,84.15
2018-03-16T15:15:10.786Z,83.04
2018-03-16T15:17:38.246Z,82.73
2018-03-16T15:20:05.695Z,84.17
2018-03-16T15:22:33.163Z,82.19
2018-03-16T15:25:00.610Z,82.25
2018-03-16T15:27:28.201Z,81.59
2018-03-16T15:29:55.661Z,81.59
2018-03-16T15:32:23.113Z,80.93
2018-03-16T15:34:50.590Z,81.67
2018-03-16T15:37:18.038Z,80.60
2018-03-16T15:39:45.518Z,79.82
2018-03-16T15:42:12.965Z,79.75
2018-03-16T15:44:40.402Z,79.38
2018-03-16T15:47:07.869Z,80.00
2018-03-16T15:49:35.314Z,80.30
2018-03-16T15:52:02.802Z,81.06
2018-03-16T15:54:30.265Z,80.84
2018-03-16T15:56:57.705Z,80.72
2018-03-16T15:59:25.170Z,80.80
2018-03-16T16:01:52.653Z,81.26
2018-03-16T16:04:20.241Z,80.41
2018-03-16T16:06:47.698Z,80.62
2018-03-16T16:09:15.154Z,79.92
2018-03-16T16:11:42.634Z,79.05
2018-03-16T16:14:10.070Z,79.03
2018-03-16T16:16:37.562Z,78.28
2018-03-16T16:19:05.055Z,79.20
2018-03-16T16:21:32.478Z,80.41
2018-03-16T16:23:59.944Z,77.31
2018-03-16T16:26:27.397Z,77.90
2018-03-16T16:28:55.096Z,78.25
2018-03-16T16:31:22.525Z,75.83
2018-03-16T16:33:50.051Z,76.39
2018-03-16T16:36:17.481Z,74.67
2018-03-16T16:38:44.934Z,74.51
2018-03-16T16:41:12.417Z,74.69
2018-03-16T16:43:39.889Z,75.46
2018-03-16T16:46:07.334Z,75.15
2018-03-16T16:48:34.813Z,75.89
2018-03-16T16:51:02.282Z,76.76
2018-03-16T16:53:29.753Z,76.68
2018-03-16T16:55:57.222Z,74.97
2018-03-16T16:58:24.681Z,74.96
2018-03-16T17:00:52.141Z,76.41
2018-03-16T17:03:19.581Z,78.44
2018-03-16T17:05:47.076Z,79.47
2018-03-16T17:08:14.551Z,80.48
2018-03-16T17:10:41.985Z,81.37
2018-03-16T17:13:09.451Z,81.11
2018-03-16T17:15:36.894Z,80.57
2018-03-16T17:18:04.738Z,80.49
2018-03-16T17:20:32.838Z,80.71
2018-03-16T17:23:00.289Z,81.27
2018-03-16T17:25:27.747Z,81.79
2018-03-16T17:27:55.206Z,82.31
2018-03-16T17:30:23.110Z,82.57
2018-03-16T17:32:50.559Z,82.11
2018-03-16T17:35:18.001Z,82.20
2018-03-16T17:37:45.461Z,81.31
2018-03-16T17:40:12.903Z,82.79
2018-03-16T17:42:40.386Z,83.61
2018-03-16T17:45:07.853Z,83.14
2018-03-16T17:47:35.309Z,83.52
2018-03-16T17:50:02.768Z,83.69
2018-03-16T17:52:30.237Z,83.47
2018-03-16T17:54:57.829Z,83.29
2018-03-16T17:57:25.274Z,82.80
2018-03-16T17:59:52.722Z,80.92
2018-03-16T18:02:20.202Z,79.33
2018-03-16T18:04:47.645Z,79.36
2018-03-16T18:07:15.106Z,79.98
2018-03-16T18:09:42.575Z,78.77
2018-03-16T18:12:10.118Z,79.31
2018-03-16T18:14:37.578Z,80.09
2018-03-16T18:17:05.030Z,79.66
2018-03-16T18:19:32.502Z,80.61
2018-03-16T18:21:59.978Z,80.53
2018-03-16T18:24:27.421Z,80.54
2018-03-16T18:26:54.885Z,81.87
2018-03-16T18:29:22.359Z,82.24
2018-03-16T18:31:49.801Z,82.30
2018-03-16T18:34:17.245Z,82.34
2018-03-16T18:36:44.905Z,82.33
2018-03-16T18:39:12.398Z,82.83
2018-03-16T18:41:39.805Z,82.41
2018-03-16T18:44:07.408Z,82.36
2018-03-16T18:46:34.862Z,82.79
2018-03-16T18:49:02.310Z,81.61
2018-03-16T18:51:29.818Z,81.75
2018-03-16T18:53:57.281Z,80.88
2018-03-16T18:56:24.962Z,82.05
2018-03-16T18:58:52.419Z,82.41
2018-03-16T19:01:19.866Z,82.43
2018-03-16T19:03:47.551Z,83.52
2018-03-16T19:06:15.086Z,84.31
2018-03-16T19:08:42.698Z,84.49
2018-03-16T19:11:10.138Z,84.86
2018-03-16T19:13:37.587Z,84.85
2018-03-16T19:16:05.049Z,85.19
2018-03-16T19:18:32.518Z,85.78
2018-03-16T19:21:00.175Z,85.28
2018-03-16T19:23:27.613Z,85.61
2018-03-16T19:25:55.049Z,87.54
2018-03-16T19:28:22.542Z,90.28
2018-03-16T19:30:50.004Z,91.64
2018-03-16T19:33:17.639Z,92.85
2018-03-16T19:35:45.085Z,94.12
2018-03-16T19:38:12.529Z,94.03
2018-03-16T19:40:40.030Z,92.94
2018-03-16T19:43:07.479Z,94.00
2018-03-16T19:45:35.106Z,93.58
2018-03-16T19:48:02.554Z,93.78
2018-03-16T19:50:30.356Z,94.22
2018-03-16T19:52:57.826Z,95.17
2018-03-16T19:55:25.270Z,95.97
2018-03-16T19:57:52.832Z,95.62
2018-03-16T20:00:20.278Z,95.55
2018-03-16T20:02:47.775Z,95.34
2018-03-16T20:05:15.256Z,94.76
2018-03-16T20:07:42.707Z,94.89
2018-03-16T20:10:10.501Z,94.27
2018-03-16T20:12:37.948Z,94.66
2018-03-16T20:15:05.402Z,94.67
2018-03-16T20:17:32.870Z,94.08
2018-03-16T20:20:00.340Z,93.79
2018-03-16T20:22:28.253Z,93.28
2018-03-16T20:24:55.710Z,92.77
2018-03-16T20:27:23.166Z,93.46
2018-03-16T20:29:52.760Z,94.24
2018-03-16T20:32:20.212Z,93.50
2018-03-16T20:34:47.873Z,94.15
2018-03-16T20:37:15.494Z,94.17
2018-03-16T20:39:42.953Z,94.22
2018-03-16T20:42:10.450Z,94.33
2018-03-16T20:44:37.895Z,93.83
2018-03-16T20:47:05.427Z,93.74
2018-03-16T20:49:32.887Z,93.97
2018-03-16T20:52:00.342Z,93.48
2018-03-16T20:54:27.815Z,93.10
2018-03-16T20:56:55.271Z,92.59
2018-03-16T20:59:23.069Z,92.41
2018-03-16T21:01:52.027Z,92.09
2018-03-16T21:04:19.466Z,92.47
2018-03-16T21:06:46.943Z,91.91
2018-03-16T21:09:14.383Z,92.25
2018-03-16T21:11:41.874Z,92.44
2018-03-16T21:14:09.322Z,91.42
2018-03-16T21:16:36.770Z,91.08
2018-03-16T21:19:04.258Z,90.65
2018-03-16T21:21:31.714Z,90.59
2018-03-16T21:23:59.402Z,90.28
2018-03-16T21:26:26.847Z,89.89
2018-03-16T21:28:54.295Z,89.76
2018-03-16T21:31:21.755Z,89.88
2018-03-16T21:33:49.199Z,89.57
2018-03-16T21:36:16.675Z,89.34
2018-03-16T21:38:44.119Z,89.49
2018-03-16T21:41:11.566Z,89.23
2018-03-16T21:43:39.026Z,89.43
2018-03-16T21:46:06.499Z,89.12
2018-03-16T21:48:34.299Z,89.11
2018-03-16T21:51:01.734Z,89.11
2018-03-16T21:53:29.177Z,88.99
2018-03-16T21:55:56.655Z,88.38
2018-03-16T21:58:24.138Z,88.57
2018-03-16T22:00:51.619Z,88.47
2018-03-16T22:03:19.065Z,88.91
2018-03-16T22:05:46.506Z,88.58
2018-03-16T22:08:13.975Z,88.80
2018-03-16T22:10:41.434Z,89.34
2018-03-16T22:13:08.910Z,89.59
2018-03-16T22:15:36.345Z,89.79
2018-03-16T22:18:03.787Z,89.57
2018-03-16T22:20:31.254Z,89.22
2018-03-16T22:22:58.749Z,88.96
2018-03-16T22:25:26.443Z,89.41
2018-03-16T22:27:53.889Z,89.30
2018-03-16T22:30:21.345Z,89.09
2018-03-16T22:32:48.811Z,89.95
2018-03-16T22:35:16.282Z,89.99
2018-03-16T22:37:43.824Z,90.51
2018-03-16T22:40:11.266Z,89.81
2018-03-16T22:42:38.725Z,89.99
2018-03-16T22:45:06.200Z,90.35
2018-03-16T22:47:33.669Z,90.66
2018-03-16T22:50:01.149Z,90.72
2018-03-16T22:52:28.613Z,90.51
2018-03-16T22:54:56.057Z,89.86
2018-03-16T22:57:23.522Z,89.67
2018-03-16T22:59:50.973Z,89.77
2018-03-16T23:02:18.586Z,89.52
2018-03-16T23:04:46.045Z,89.49
2018-03-16T23:07:13.497Z,89.32
2018-03-16T23:09:40.962Z,89.82
2018-03-16T23:12:08.415Z,89.12
2018-03-16T23:14:36.050Z,89.07
2018-03-16T23:17:03.509Z,89.21
2018-03-16T23:19:30.950Z,89.75
2018-03-16T23:21:58.420Z,89.56
2018-03-16T23:24:25.894Z,89.28
2018-03-16T23:26:53.502Z,89.76
2018-03-16T23:29:20.953Z,89.68
2018-03-16T23:31:48.398Z,89.41
2018-03-16T23:34:15.943Z,88.96
2018-03-16T23:36:43.419Z,88.84
2018-03-16T23:39:10.890Z,88.68
2018-03-16T23:41:38.357Z,88.75
2018-03-16T23:44:05.801Z,88.17
2018-03-16T23:46:33.263Z,88.35
2018-03-16T23:49:00.726Z,87.88
2018-03-16T23:51:28.197Z,87.43
2018-03-16T23:53:55.637Z,87.40
2018-03-16T23:56:23.107Z,87.72
2018-03-16T23:58:50.570Z,87.67
